createdAt,value
2022-08-23T00:02:00.733Z,100350.38
2022-08-23T00:04:35.746Z,100340.25
2022-08-23T00:07:05.569Z,100350.22
2022-08-23T00:09:33.751Z,100353.19
2022-08-23T00:12:10.278Z,100343.22
2022-08-23T00:14:42.388Z,100345.34
2022-08-23T00:17:34.398Z,100341.47
2022-08-23T00:20:06.476Z,100342.47
2022-08-23T00:22:34.325Z,100341.59
2022-08-23T00:25:02.186Z,100336.16
2022-08-23T00:27:30.170Z,100326.03
2022-08-23T00:29:59.027Z,100331.50
2022-08-23T00:32:30.074Z,100334.84
2022-08-23T00:34:59.497Z,100321.13
2022-08-23T00:37:32.075Z,100325.09
2022-08-23T00:40:00.129Z,100326.00
2022-08-23T00:42:52.627Z,100311.84
2022-08-23T00:45:44.302Z,100324.31
2022-08-23T00:48:13.354Z,100326.59
2022-08-23T00:50:49.092Z,100328.81
2022-08-23T00:53:22.981Z,100317.56
2022-08-23T00:55:53.885Z,100327.50
2022-08-23T00:58:23.057Z,100332.78
2022-08-23T01:00:54.665Z,100338.59
2022-08-23T01:03:26.781Z,100330.66
2022-08-23T01:06:02.581Z,100341.94
2022-08-23T01:08:34.342Z,100343.34
2022-08-23T01:11:09.363Z,100347.19
2022-08-23T01:13:43.668Z,100348.59
2022-08-23T01:16:16.922Z,100338.09
2022-08-23T01:18:45.717Z,100346.09
2022-08-23T01:21:17.717Z,100343.34
2022-08-23T01:23:49.921Z,100345.81
2022-08-23T01:26:21.833Z,100345.78
2022-08-23T01:28:50.461Z,100344.41
2022-08-23T01:31:19.885Z,100353.72
2022-08-23T01:33:53.909Z,100361.97
2022-08-23T01:36:22.077Z,100353.72
2022-08-23T01:38:51.588Z,100349.28
2022-08-23T01:41:19.475Z,100357.28
2022-08-23T01:43:47.647Z,100340.72
2022-08-23T01:46:18.803Z,100336.31
2022-08-23T01:48:48.447Z,100345.91
2022-08-23T01:51:17.200Z,100335.22
2022-08-23T01:53:46.455Z,100340.41
2022-08-23T01:56:28.092Z,100346.47
2022-08-23T01:59:07.529Z,100347.28
2022-08-23T02:01:35.600Z,100347.22
2022-08-23T02:04:04.917Z,100346.91
2022-08-23T02:06:33.642Z,100345.81
2022-08-23T02:09:04.574Z,100347.50
2022-08-23T02:11:38.117Z,100343.97
2022-08-23T02:14:08.652Z,100341.97
2022-08-23T02:16:39.191Z,100344.75
2022-08-23T02:19:13.189Z,100332.34
2022-08-23T02:21:42.051Z,100345.28
2022-08-23T02:24:14.769Z,100350.22
2022-08-23T02:26:48.755Z,100352.09
2022-08-23T02:29:26.157Z,100356.69
2022-08-23T02:31:54.090Z,100356.63
2022-08-23T02:34:25.232Z,100350.56
2022-08-23T02:36:55.696Z,100360.50
2022-08-23T02:39:23.978Z,100360.25
2022-08-23T02:41:53.532Z,100357.44
2022-08-23T02:44:22.081Z,100355.19
2022-08-23T02:46:49.977Z,100361.28
2022-08-23T02:49:18.819Z,100368.19
2022-08-23T02:51:47.347Z,100369.78
2022-08-23T02:54:15.371Z,100364.00
2022-08-23T02:56:43.846Z,100352.78
2022-08-23T02:59:13.336Z,100354.63
2022-08-23T03:01:41.796Z,100358.53
2022-08-23T03:04:10.929Z,100359.34
2022-08-23T03:06:39.709Z,100366.44
2022-08-23T03:09:08.903Z,100377.66
2022-08-23T03:11:36.890Z,100372.16
2022-08-23T03:14:05.445Z,100360.22
2022-08-23T03:16:34.636Z,100367.94
2022-08-23T03:19:02.726Z,100376.94
2022-08-23T03:21:31.174Z,100369.59
2022-08-23T03:24:00.732Z,100371.09
2022-08-23T03:26:28.909Z,100376.22
2022-08-23T03:28:57.486Z,100378.97
2022-08-23T03:31:25.371Z,100371.94
2022-08-23T03:33:59.037Z,100374.47
2022-08-23T03:36:28.320Z,100375.69
2022-08-23T03:38:56.965Z,100387.19
2022-08-23T03:41:25.095Z,100384.16
2022-08-23T03:43:53.157Z,100378.34
2022-08-23T03:46:23.997Z,100383.59
2022-08-23T03:48:54.010Z,100386.59
2022-08-23T03:51:24.360Z,100385.47
2022-08-23T03:53:52.616Z,100380.25
2022-08-23T03:56:24.906Z,100392.31
2022-08-23T03:58:53.619Z,100379.81
2022-08-23T04:01:25.207Z,100392.53
2022-08-23T04:03:59.656Z,100400.97
2022-08-23T04:06:30.012Z,100389.59
2022-08-23T04:08:57.898Z,100399.22
2022-08-23T04:11:26.506Z,100398.22
2022-08-23T04:13:54.592Z,100403.63
2022-08-23T04:16:22.734Z,100398.97
2022-08-23T04:18:50.685Z,100400.28
2022-08-23T04:21:22.708Z,100409.59
2022-08-23T04:23:52.780Z,100409.25
2022-08-23T04:26:21.394Z,100411.13
2022-08-23T04:28:49.285Z,100415.22
2022-08-23T04:31:18.219Z,100418.16
2022-08-23T04:33:46.172Z,100409.69
2022-08-23T04:36:20.889Z,100428.81
2022-08-23T04:38:53.013Z,100418.84
2022-08-23T04:41:46.730Z,100437.88
2022-08-23T04:44:15.461Z,100430.22
2022-08-23T04:46:43.724Z,100431.84
2022-08-23T04:49:13.025Z,100421.59
2022-08-23T04:51:41.055Z,100435.41
2022-08-23T04:54:10.414Z,100431.63
2022-08-23T04:56:43.644Z,100435.25
2022-08-23T04:59:13.084Z,100436.97
2022-08-23T05:01:42.325Z,100445.34
2022-08-23T05:04:10.702Z,100445.63
2022-08-23T05:06:39.620Z,100437.59
2022-08-23T05:09:07.588Z,100439.25
2022-08-23T05:11:36.864Z,100446.44
2022-08-23T05:14:05.579Z,100445.00
2022-08-23T05:16:33.668Z,100456.31
2022-08-23T05:19:01.691Z,100457.44
2022-08-23T05:21:29.662Z,100457.00
2022-08-23T05:23:57.745Z,100456.81
2022-08-23T05:26:25.731Z,100454.91
2022-08-23T05:28:54.969Z,100466.78
2022-08-23T05:31:25.411Z,100461.28
2022-08-23T05:33:53.818Z,100470.16
2022-08-23T05:36:22.223Z,100473.41
2022-08-23T05:38:50.473Z,100464.03
2022-08-23T05:41:19.174Z,100479.22
2022-08-23T05:43:49.235Z,100486.09
2022-08-23T05:46:21.965Z,100479.50
2022-08-23T05:48:54.714Z,100494.09
2022-08-23T05:51:25.070Z,100498.81
2022-08-23T05:53:54.489Z,100496.59
2022-08-23T05:56:24.798Z,100487.88
2022-08-23T05:58:59.878Z,100495.25
2022-08-23T06:01:31.332Z,100496.72
2022-08-23T06:04:00.638Z,100506.38
2022-08-23T06:06:35.008Z,100504.50
2022-08-23T06:09:08.464Z,100493.50
2022-08-23T06:11:36.549Z,100504.84
2022-08-23T06:14:06.938Z,100506.00
2022-08-23T06:16:40.230Z,100506.84
2022-08-23T06:19:09.897Z,100504.94
2022-08-23T06:21:39.291Z,100504.13
2022-08-23T06:24:07.906Z,100498.63
2022-08-23T06:26:38.400Z,100505.81
2022-08-23T06:29:09.333Z,100503.06
2022-08-23T06:31:47.148Z,100489.31
2022-08-23T06:34:18.600Z,100501.41
2022-08-23T06:36:47.678Z,100508.59
2022-08-23T06:39:17.096Z,100509.97
2022-08-23T06:41:45.642Z,100505.84
2022-08-23T06:44:13.477Z,100502.50
2022-08-23T06:46:42.738Z,100496.97
2022-08-23T06:49:11.039Z,100508.28
2022-08-23T06:51:41.248Z,100501.34
2022-08-23T06:54:12.139Z,100504.59
2022-08-23T06:56:41.047Z,100500.19
2022-08-23T06:59:09.727Z,100504.34
2022-08-23T07:01:45.761Z,100499.00
2022-08-23T07:04:18.675Z,100497.00
2022-08-23T07:06:47.232Z,100499.59
2022-08-23T07:09:15.791Z,100508.06
2022-08-23T07:11:43.866Z,100510.72
2022-08-23T07:14:14.368Z,100507.44
2022-08-23T07:16:45.273Z,100508.94
2022-08-23T07:19:15.659Z,100503.16
2022-08-23T07:21:44.591Z,100501.97
2022-08-23T07:24:17.644Z,100505.03
2022-08-23T07:26:47.637Z,100509.53
2022-08-23T07:29:16.816Z,100508.50
2022-08-23T07:31:46.583Z,100509.94
2022-08-23T07:34:16.336Z,100508.97
2022-08-23T07:36:46.823Z,100506.00
2022-08-23T07:39:15.735Z,100495.78
2022-08-23T07:41:44.964Z,100504.81
2022-08-23T07:44:17.425Z,100506.03
2022-08-23T07:46:48.018Z,100505.75
2022-08-23T07:49:17.572Z,100505.69
2022-08-23T07:51:49.486Z,100513.06
2022-08-23T07:54:19.463Z,100512.41
2022-08-23T07:56:47.464Z,100506.00
2022-08-23T07:59:15.574Z,100504.25
2022-08-23T08:01:46.682Z,100500.22
2022-08-23T08:04:14.593Z,100507.59
2022-08-23T08:06:56.127Z,100517.53
2022-08-23T08:09:32.975Z,100507.47
2022-08-23T08:12:00.816Z,100502.09
2022-08-23T08:14:28.785Z,100517.13
2022-08-23T08:16:58.654Z,100512.28
2022-08-23T08:19:26.789Z,100513.38
2022-08-23T08:21:56.114Z,100517.78
2022-08-23T08:24:24.012Z,100517.38
2022-08-23T08:26:52.233Z,100522.16
2022-08-23T08:29:20.285Z,100516.75
2022-08-23T08:31:52.403Z,100527.03
2022-08-23T08:34:22.078Z,100524.47
2022-08-23T08:36:51.938Z,100516.34
2022-08-23T08:39:24.487Z,100519.44
2022-08-23T08:42:11.126Z,100518.09
2022-08-23T08:44:46.044Z,100526.72
2022-08-23T08:47:20.773Z,100531.47
2022-08-23T08:49:58.563Z,100535.03
2022-08-23T08:52:32.113Z,100530.00
2022-08-23T08:55:06.660Z,100530.94
2022-08-23T08:57:40.342Z,100515.19
2022-08-23T09:00:12.787Z,100525.47
2022-08-23T09:02:41.025Z,100526.38
2022-08-23T09:05:14.602Z,100534.88
2022-08-23T09:07:53.113Z,100520.56
2022-08-23T09:10:44.369Z,100525.16
2022-08-23T09:13:35.848Z,100523.25
2022-08-23T09:16:13.115Z,100515.69
2022-08-23T09:18:41.034Z,100519.06
2022-08-23T09:21:10.533Z,100517.34
2022-08-23T09:23:43.412Z,100516.13
2022-08-23T09:26:24.930Z,100514.25
2022-08-23T09:28:55.159Z,100507.53
2022-08-23T09:31:41.345Z,100508.03
2022-08-23T09:34:10.102Z,100504.84
2022-08-23T09:36:39.471Z,100498.31
2022-08-23T09:39:09.418Z,100504.78
2022-08-23T09:41:41.394Z,100509.06
2022-08-23T09:44:13.656Z,100506.59
2022-08-23T09:46:44.226Z,100493.13
2022-08-23T09:49:25.054Z,100489.06
2022-08-23T09:51:54.769Z,100494.78
2022-08-23T09:54:26.654Z,100491.09
2022-08-23T09:56:59.537Z,100489.63
2022-08-23T09:59:39.160Z,100497.03
2022-08-23T10:02:15.841Z,100486.47
2022-08-23T10:04:45.914Z,100486.94
2022-08-23T10:07:31.329Z,100486.16
2022-08-23T10:10:32.632Z,100490.66
2022-08-23T10:13:02.679Z,100485.59
2022-08-23T10:15:49.285Z,100485.75
2022-08-23T10:18:26.784Z,100470.94
2022-08-23T10:21:02.929Z,100465.41
2022-08-23T10:23:42.995Z,100465.56
2022-08-23T10:26:21.994Z,100466.34
2022-08-23T10:29:17.090Z,100464.91
2022-08-23T10:31:55.740Z,100461.13
2022-08-23T10:34:46.028Z,100460.66
2022-08-23T10:37:36.089Z,100456.88
2022-08-23T10:40:11.930Z,100459.34
2022-08-23T10:42:49.052Z,100459.97
2022-08-23T10:45:27.019Z,100458.97
2022-08-23T10:48:11.921Z,100448.75
2022-08-23T10:50:55.755Z,100453.31
2022-08-23T10:53:29.700Z,100449.09
2022-08-23T10:56:05.940Z,100448.56
2022-08-23T10:58:38.939Z,100440.28
2022-08-23T11:01:10.152Z,100444.06
2022-08-23T11:03:44.670Z,100440.94
2022-08-23T11:06:45.806Z,100440.41
2022-08-23T11:09:59.303Z,100429.66
2022-08-23T11:12:34.334Z,100421.19
2022-08-23T11:15:19.602Z,100431.03
2022-08-23T11:17:59.408Z,100427.84
2022-08-23T11:20:58.519Z,100426.41
2022-08-23T11:23:43.203Z,100421.63
2022-08-23T11:26:36.597Z,100419.44
2022-08-23T11:29:29.235Z,100412.41
2022-08-23T11:32:06.627Z,100420.19
2022-08-23T11:34:44.702Z,100417.19
2022-08-23T11:37:31.098Z,100411.88
2022-08-23T11:40:17.493Z,100420.91
2022-08-23T11:42:50.888Z,100414.94
2022-08-23T11:45:30.263Z,100410.91
2022-08-23T11:48:14.785Z,100407.50
2022-08-23T11:51:13.579Z,100413.28
2022-08-23T11:54:01.513Z,100404.31
2022-08-23T11:56:42.237Z,100406.97
2022-08-23T11:59:38.443Z,100411.50
2022-08-23T12:02:34.982Z,100409.38
2022-08-23T12:05:08.771Z,100393.25
2022-08-23T12:07:47.590Z,100402.13
2022-08-23T12:10:18.147Z,100394.88
2022-08-23T12:12:47.444Z,100393.34
2022-08-23T12:15:18.541Z,100393.16
2022-08-23T12:18:10.733Z,100392.44
2022-08-23T12:20:40.140Z,100392.19
2022-08-23T12:23:19.862Z,100389.16
2022-08-23T12:25:47.769Z,100381.31
2022-08-23T12:28:31.471Z,100375.94
2022-08-23T12:31:08.010Z,100392.66
2022-08-23T12:33:49.888Z,100387.09
2022-08-23T12:36:23.877Z,100378.06
2022-08-23T12:39:04.867Z,100387.50
2022-08-23T12:41:36.673Z,100374.09
2022-08-23T12:44:07.954Z,100384.00
2022-08-23T12:46:39.391Z,100377.84
2022-08-23T12:49:13.236Z,100380.66
2022-08-23T12:51:43.127Z,100379.41
2022-08-23T12:54:18.076Z,100380.00
2022-08-23T12:56:48.740Z,100375.44
2022-08-23T12:59:35.274Z,100373.66
2022-08-23T13:02:05.886Z,100370.91
2022-08-23T13:04:36.605Z,100377.59
2022-08-23T13:07:09.622Z,100367.28
2022-08-23T13:09:43.736Z,100366.44
2022-08-23T13:12:21.712Z,100356.31
2022-08-23T13:14:52.631Z,100367.09
2022-08-23T13:17:31.574Z,100360.66
2022-08-23T13:20:18.803Z,100356.78
2022-08-23T13:23:02.798Z,100346.41
2022-08-23T13:25:36.075Z,100357.19
2022-08-23T13:28:08.544Z,100357.34
2022-08-23T13:30:39.045Z,100349.47
2022-08-23T13:33:23.079Z,100361.47
2022-08-23T13:35:54.323Z,100363.53
2022-08-23T13:38:26.015Z,100355.78
2022-08-23T13:41:06.480Z,100350.94
2022-08-23T13:43:46.219Z,100357.09
2022-08-23T13:46:18.141Z,100347.31
2022-08-23T13:48:55.597Z,100348.41
2022-08-23T13:51:31.888Z,100345.00
2022-08-23T13:54:01.982Z,100345.06
2022-08-23T13:56:35.601Z,100341.19
2022-08-23T13:59:13.860Z,100335.22
2022-08-23T14:02:02.337Z,100336.19
2022-08-23T14:04:30.946Z,100334.13
2022-08-23T14:06:58.900Z,100331.31
2022-08-23T14:09:26.994Z,100324.78
2022-08-23T14:12:00.302Z,100311.97
2022-08-23T14:14:32.293Z,100314.16
2022-08-23T14:17:02.863Z,100314.53
2022-08-23T14:22:20.262Z,100300.66
2022-08-23T14:24:48.225Z,100296.00
2022-08-23T14:27:17.466Z,100301.28
2022-08-23T14:29:45.536Z,100301.25
2022-08-23T14:32:13.612Z,100306.41
2022-08-23T14:34:41.607Z,100304.56
2022-08-23T14:39:58.200Z,100307.03
2022-08-23T14:42:27.578Z,100309.34
2022-08-23T14:44:55.701Z,100314.03
2022-08-23T14:47:23.613Z,100313.59
2022-08-23T14:49:53.862Z,100307.19
2022-08-23T14:52:22.995Z,100306.97
2022-08-23T14:54:51.178Z,100312.81
2022-08-23T14:57:19.292Z,100312.19
2022-08-23T14:59:48.679Z,100305.00
2022-08-23T15:02:23.066Z,100303.00
2022-08-23T15:04:51.509Z,100302.75
2022-08-23T15:07:19.810Z,100296.91
2022-08-23T15:09:49.141Z,100306.81
2022-08-23T15:15:12.283Z,100308.81
2022-08-23T15:17:47.906Z,100304.44
2022-08-23T15:20:16.392Z,100305.75
2022-08-23T15:22:45.189Z,100293.63
2022-08-23T15:25:24.300Z,100277.69
2022-08-23T15:27:53.237Z,100299.34
2022-08-23T15:30:24.500Z,100291.47
2022-08-23T15:32:56.723Z,100291.56
2022-08-23T15:35:26.031Z,100274.31
2022-08-23T15:37:54.892Z,100278.19
2022-08-23T15:40:25.648Z,100282.19
2022-08-23T15:42:54.546Z,100290.47
2022-08-23T15:45:24.133Z,100284.31
2022-08-23T15:47:55.001Z,100278.75
2022-08-23T15:50:25.699Z,100279.69
2022-08-23T15:52:54.304Z,100283.69
2022-08-23T15:55:22.953Z,100291.47
2022-08-23T15:57:54.203Z,100296.97
2022-08-23T16:00:24.427Z,100294.22
2022-08-23T16:03:20.318Z,100292.38
2022-08-23T16:05:44.357Z,100297.63
2022-08-23T16:08:17.412Z,100295.53
2022-08-23T16:10:45.721Z,100292.97
2022-08-23T16:13:13.863Z,100298.13
2022-08-23T16:15:43.176Z,100294.41
2022-08-23T16:18:11.889Z,100298.94
2022-08-23T16:20:40.236Z,100300.59
2022-08-23T16:23:08.275Z,100297.69
2022-08-23T16:25:36.998Z,100293.00
2022-08-23T16:28:07.500Z,100300.50
2022-08-23T16:30:36.162Z,100286.06
2022-08-23T16:33:05.809Z,100296.13
2022-08-23T16:35:33.699Z,100292.88
2022-08-23T16:38:01.777Z,100293.19
2022-08-23T16:40:29.793Z,100305.81
2022-08-23T16:42:57.729Z,100295.84
2022-08-23T16:45:26.521Z,100295.41
2022-08-23T16:47:54.619Z,100302.28
2022-08-23T16:50:23.951Z,100294.16
2022-08-23T16:52:52.004Z,100299.84
2022-08-23T16:55:21.362Z,100290.47
2022-08-23T16:57:49.284Z,100296.00
2022-08-23T17:00:17.742Z,100306.53
2022-08-23T17:02:46.017Z,100306.09
2022-08-23T17:05:17.065Z,100307.94
2022-08-23T17:07:47.794Z,100309.38
2022-08-23T17:10:20.572Z,100293.22
2022-08-23T17:12:52.967Z,100304.88
2022-08-23T17:15:24.127Z,100302.72
2022-08-23T17:17:52.573Z,100308.06
2022-08-23T17:20:22.381Z,100304.69
2022-08-23T17:22:52.108Z,100303.50
2022-08-23T17:25:20.809Z,100309.44
2022-08-23T17:27:50.411Z,100312.81
2022-08-23T17:30:20.950Z,100317.97
2022-08-23T17:32:49.550Z,100321.22
2022-08-23T17:35:19.784Z,100321.66
2022-08-23T17:37:47.933Z,100318.50
2022-08-23T17:40:21.518Z,100326.09
2022-08-23T17:42:50.081Z,100332.13
2022-08-23T17:45:19.603Z,100335.66
2022-08-23T17:47:52.906Z,100329.44
2022-08-23T17:50:21.911Z,100338.66
2022-08-23T17:52:50.777Z,100331.00
2022-08-23T17:55:20.682Z,100326.91
2022-08-23T17:57:49.338Z,100344.69
2022-08-23T18:00:20.311Z,100335.09
2022-08-23T18:02:48.540Z,100350.06
2022-08-23T18:05:25.946Z,100346.63
2022-08-23T18:07:54.048Z,100351.63
2022-08-23T18:10:25.334Z,100336.97
2022-08-23T18:12:53.524Z,100345.69
2022-08-23T18:15:21.560Z,100349.78
2022-08-23T18:17:49.438Z,100353.06
2022-08-23T18:20:21.036Z,100364.53
2022-08-23T18:22:48.891Z,100360.72
2022-08-23T18:25:17.659Z,100378.66
2022-08-23T18:28:12.919Z,100379.09
2022-08-23T18:30:47.565Z,100384.09
2022-08-23T18:33:16.394Z,100387.88
2022-08-23T18:35:46.826Z,100390.72
2022-08-23T18:38:15.917Z,100391.84
2022-08-23T18:40:46.648Z,100396.94
2022-08-23T18:43:19.054Z,100394.50
2022-08-23T18:45:48.585Z,100403.31
2022-08-23T18:48:17.457Z,100366.50
2022-08-23T18:50:45.936Z,100402.78
2022-08-23T18:53:14.977Z,100403.09
2022-08-23T18:55:44.727Z,100394.72
2022-08-23T18:58:13.262Z,100415.28
2022-08-23T19:00:42.981Z,100421.13
2022-08-23T19:03:11.273Z,100422.97
2022-08-23T19:05:41.577Z,100431.19
2022-08-23T19:08:10.583Z,100434.34
2022-08-23T19:10:38.892Z,100440.94
2022-08-23T19:13:07.037Z,100441.13
2022-08-23T19:15:35.633Z,100446.84
2022-08-23T19:18:05.685Z,100442.78
2022-08-23T19:20:33.701Z,100449.22
2022-08-23T19:23:01.791Z,100428.22
2022-08-23T19:25:31.688Z,100448.97
2022-08-23T19:27:59.644Z,100445.53
2022-08-23T19:30:28.311Z,100440.25
2022-08-23T19:32:56.678Z,100453.34
2022-08-23T19:35:26.143Z,100453.22
2022-08-23T19:37:53.981Z,100455.75
2022-08-23T19:40:22.051Z,100436.94
2022-08-23T19:42:51.259Z,100425.00
2022-08-23T19:45:19.941Z,100431.75
2022-08-23T19:47:47.840Z,100458.16
2022-08-23T19:50:15.788Z,100457.94
2022-08-23T19:52:53.236Z,100464.88
2022-08-23T19:55:21.435Z,100443.53
2022-08-23T19:57:49.273Z,100465.13
2022-08-23T20:00:19.802Z,100461.50
2022-08-23T20:02:48.218Z,100452.53
2022-08-23T20:05:16.904Z,100479.84
2022-08-23T20:07:45.321Z,100473.84
2022-08-23T20:10:15.284Z,100486.88
2022-08-23T20:12:43.945Z,100480.88
2022-08-23T20:15:13.299Z,100472.94
2022-08-23T20:17:42.105Z,100468.69
2022-08-23T20:20:13.633Z,100483.25
2022-08-23T20:22:59.570Z,100491.84
2022-08-23T20:25:30.752Z,100469.41
2022-08-23T20:27:59.758Z,100498.97
2022-08-23T20:30:27.737Z,100496.00
2022-08-23T20:32:55.712Z,100504.91
2022-08-23T20:35:24.042Z,100500.56
2022-08-23T20:37:51.906Z,100498.56
2022-08-23T20:40:20.498Z,100474.50
2022-08-23T20:42:51.064Z,100498.53
2022-08-23T20:45:19.233Z,100503.03
2022-08-23T20:47:47.127Z,100500.84
2022-08-23T20:50:15.000Z,100500.84
2022-08-23T20:52:43.020Z,100492.97
2022-08-23T20:55:12.322Z,100501.56
2022-08-23T20:57:40.322Z,100500.63
2022-08-23T21:00:11.564Z,100493.97
2022-08-23T21:02:39.613Z,100503.69
2022-08-23T21:05:07.960Z,100497.34
2022-08-23T21:07:36.911Z,100504.56
2022-08-23T21:10:05.981Z,100485.97
2022-08-23T21:12:34.958Z,100518.00
2022-08-23T21:15:02.962Z,100536.84
2022-08-23T21:17:32.836Z,100533.31
2022-08-23T21:20:00.716Z,100506.34
2022-08-23T21:22:31.935Z,100528.16
2022-08-23T21:24:59.971Z,100529.84
2022-08-23T21:27:28.343Z,100537.63
2022-08-23T21:29:56.305Z,100532.91
2022-08-23T21:32:24.277Z,100542.03
2022-08-23T21:34:53.885Z,100542.88
2022-08-23T21:37:21.867Z,100516.41
2022-08-23T21:39:50.792Z,100522.53
2022-08-23T21:42:23.477Z,100545.91
2022-08-23T21:44:52.366Z,100551.63
2022-08-23T21:47:20.719Z,100557.28
2022-08-23T21:49:48.651Z,100555.69
2022-08-23T21:52:17.867Z,100556.78
2022-08-23T21:54:45.739Z,100558.34
2022-08-23T21:57:13.672Z,100551.72
2022-08-23T21:59:41.617Z,100554.47
2022-08-23T22:02:09.630Z,100547.84
2022-08-23T22:04:37.839Z,100548.66
2022-08-23T22:07:05.889Z,100553.59
2022-08-23T22:09:35.159Z,100545.28
2022-08-23T22:12:03.181Z,100550.47
2022-08-23T22:14:32.044Z,100551.34
2022-08-23T22:17:00.785Z,100553.84
2022-08-23T22:19:29.098Z,100563.25
2022-08-23T22:21:57.108Z,100559.47
2022-08-23T22:24:26.309Z,100558.16
2022-08-23T22:26:56.577Z,100561.53
2022-08-23T22:29:25.302Z,100552.50
2022-08-23T22:31:53.142Z,100566.81
2022-08-23T22:34:21.173Z,100542.06
2022-08-23T22:36:52.100Z,100574.34
2022-08-23T22:39:21.306Z,100554.78
2022-08-23T22:41:49.267Z,100571.31
2022-08-23T22:44:18.950Z,100559.50
2022-08-23T22:46:47.068Z,100566.41
2022-08-23T22:49:15.186Z,100562.28
2022-08-23T22:51:43.857Z,100569.47
2022-08-23T22:54:12.649Z,100564.81
2022-08-23T22:56:42.706Z,100565.38
2022-08-23T22:59:11.435Z,100564.81
2022-08-23T23:01:44.626Z,100578.34
2022-08-23T23:04:15.257Z,100575.84
2022-08-23T23:06:43.536Z,100566.75
2022-08-23T23:09:13.628Z,100568.94
2022-08-23T23:11:42.660Z,100557.34
2022-08-23T23:14:11.369Z,100579.97
2022-08-23T23:16:41.493Z,100571.41
2022-08-23T23:19:38.555Z,100586.00
2022-08-23T23:22:09.576Z,100583.50
2022-08-23T23:24:39.688Z,100575.50
2022-08-23T23:27:08.738Z,100572.47
2022-08-23T23:29:36.702Z,100590.38
2022-08-23T23:32:06.672Z,100587.63
2022-08-23T23:34:34.938Z,100586.25
2022-08-23T23:37:02.874Z,100596.16
2022-08-23T23:39:31.015Z,100601.13
2022-08-23T23:41:58.983Z,100599.72
2022-08-23T23:44:30.950Z,100610.53
2022-08-23T23:47:00.342Z,100602.28
2022-08-23T23:49:32.961Z,100608.63
2022-08-23T23:52:02.763Z,100610.28
2022-08-23T23:54:31.460Z,100611.13
2022-08-23T23:56:59.519Z,100599.28
2022-08-23T23:59:27.496Z,100605.06
